sensor_id;sensor_type;location;lat;lon;timestamp;temperature;humidity
8338;DHT22;4206;48.634;9.516;2023-03-23T00:02:12;11.10;99.90
8338;DHT22;4206;48.634;9.516;2023-03-23T00:04:38;11.10;99.90
8338;DHT22;4206;48.634;9.516;2023-03-23T00:07:04;11.20;99.90
8338;DHT22;4206;48.634;9.516;2023-03-23T00:09:30;11.30;99.90
8338;DHT22;4206;48.634;9.516;2023-03-23T00:12:00;11.40;99.90
8338;DHT22;4206;48.634;9.516;2023-03-23T00:14:32;11.40;99.90
8338;DHT22;4206;48.634;9.516;2023-03-23T00:17:08;11.50;99.90
8338;DHT22;4206;48.634;9.516;2023-03-23T00:19:37;11.60;99.90
8338;DHT22;4206;48.634;9.516;2023-03-23T00:22:13;11.60;99.90
8338;DHT22;4206;48.634;9.516;2023-03-23T00:24:38;11.60;99.90
8338;DHT22;4206;48.634;9.516;2023-03-23T00:27:04;11.60;99.90
8338;DHT22;4206;48.634;9.516;2023-03-23T00:29:30;11.70;99.90
8338;DHT22;4206;48.634;9.516;2023-03-23T00:31:59;11.90;99.90
8338;DHT22;4206;48.634;9.516;2023-03-23T00:34:25;11.90;99.90
8338;DHT22;4206;48.634;9.516;2023-03-23T00:36:58;11.80;99.90
8338;DHT22;4206;48.634;9.516;2023-03-23T00:39:25;11.80;99.90
8338;DHT22;4206;48.634;9.516;2023-03-23T00:41:53;11.80;99.90
8338;DHT22;4206;48.634;9.516;2023-03-23T00:44:20;11.90;99.90
8338;DHT22;4206;48.634;9.516;2023-03-23T00:46:49;11.70;99.90
8338;DHT22;4206;48.634;9.516;2023-03-23T00:49:17;11.60;99.90
8338;DHT22;4206;48.634;9.516;2023-03-23T00:51:44;11.70;99.90
8338;DHT22;4206;48.634;9.516;2023-03-23T00:54:10;11.80;99.90
8338;DHT22;4206;48.634;9.516;2023-03-23T00:56:36;11.90;99.90
8338;DHT22;4206;48.634;9.516;2023-03-23T00:59:03;11.90;99.90
8338;DHT22;4206;48.634;9.516;2023-03-23T01:01:29;11.90;99.90
8338;DHT22;4206;48.634;9.516;2023-03-23T01:03:55;11.90;99.90
8338;DHT22;4206;48.634;9.516;2023-03-23T01:06:27;11.80;99.90
8338;DHT22;4206;48.634;9.516;2023-03-23T01:08:53;11.80;99.90
8338;DHT22;4206;48.634;9.516;2023-03-23T01:11:20;11.70;99.90
8338;DHT22;4206;48.634;9.516;2023-03-23T01:13:46;11.70;99.90
8338;DHT22;4206;48.634;9.516;2023-03-23T01:16:12;11.60;99.90
8338;DHT22;4206;48.634;9.516;2023-03-23T01:18:39;11.70;99.90
8338;DHT22;4206;48.634;9.516;2023-03-23T01:21:08;11.60;99.90
8338;DHT22;4206;48.634;9.516;2023-03-23T01:23:35;11.70;99.90
8338;DHT22;4206;48.634;9.516;2023-03-23T01:26:06;11.70;99.90
8338;DHT22;4206;48.634;9.516;2023-03-23T01:28:34;11.60;99.90
8338;DHT22;4206;48.634;9.516;2023-03-23T01:31:03;11.60;99.90
8338;DHT22;4206;48.634;9.516;2023-03-23T01:33:29;11.60;99.90
8338;DHT22;4206;48.634;9.516;2023-03-23T01:35:56;11.50;99.90
8338;DHT22;4206;48.634;9.516;2023-03-23T01:38:22;11.60;99.90
8338;DHT22;4206;48.634;9.516;2023-03-23T01:40:47;11.50;99.90
8338;DHT22;4206;48.634;9.516;2023-03-23T01:43:14;11.60;99.90
8338;DHT22;4206;48.634;9.516;2023-03-23T01:45:41;11.50;99.90
8338;DHT22;4206;48.634;9.516;2023-03-23T01:48:13;11.50;99.90
8338;DHT22;4206;48.634;9.516;2023-03-23T01:50:47;11.50;99.90
8338;DHT22;4206;48.634;9.516;2023-03-23T01:53:14;11.50;99.90
8338;DHT22;4206;48.634;9.516;2023-03-23T01:55:41;11.40;99.90
8338;DHT22;4206;48.634;9.516;2023-03-23T01:58:09;11.50;99.90
8338;DHT22;4206;48.634;9.516;2023-03-23T02:00:38;11.50;99.90
8338;DHT22;4206;48.634;9.516;2023-03-23T02:03:09;11.50;99.90
8338;DHT22;4206;48.634;9.516;2023-03-23T02:05:39;11.40;99.90
8338;DHT22;4206;48.634;9.516;2023-03-23T02:08:06;11.40;99.90
8338;DHT22;4206;48.634;9.516;2023-03-23T02:10:34;11.50;99.90
8338;DHT22;4206;48.634;9.516;2023-03-23T02:13:03;11.40;99.90
8338;DHT22;4206;48.634;9.516;2023-03-23T02:15:39;11.40;99.90
8338;DHT22;4206;48.634;9.516;2023-03-23T02:18:27;11.40;99.90
8338;DHT22;4206;48.634;9.516;2023-03-23T02:26:34;11.40;99.90
8338;DHT22;4206;48.634;9.516;2023-03-23T02:31:44;11.50;99.90
8338;DHT22;4206;48.634;9.516;2023-03-23T02:34:25;11.60;99.90
8338;DHT22;4206;48.634;9.516;2023-03-23T02:37:03;11.60;99.90
8338;DHT22;4206;48.634;9.516;2023-03-23T02:39:33;11.60;99.90
8338;DHT22;4206;48.634;9.516;2023-03-23T02:42:05;11.70;99.90
8338;DHT22;4206;48.634;9.516;2023-03-23T02:44:34;11.60;99.90
8338;DHT22;4206;48.634;9.516;2023-03-23T02:47:04;11.70;99.90
8338;DHT22;4206;48.634;9.516;2023-03-23T02:49:32;11.60;99.90
8338;DHT22;4206;48.634;9.516;2023-03-23T02:52:04;11.60;99.90
8338;DHT22;4206;48.634;9.516;2023-03-23T02:54:31;11.70;99.90
8338;DHT22;4206;48.634;9.516;2023-03-23T02:56:57;11.80;99.90
8338;DHT22;4206;48.634;9.516;2023-03-23T02:59:23;11.90;99.90
8338;DHT22;4206;48.634;9.516;2023-03-23T03:01:54;12.00;99.90
8338;DHT22;4206;48.634;9.516;2023-03-23T03:04:23;12.00;99.90
8338;DHT22;4206;48.634;9.516;2023-03-23T03:07:05;12.10;99.90
8338;DHT22;4206;48.634;9.516;2023-03-23T03:09:44;12.20;99.90
8338;DHT22;4206;48.634;9.516;2023-03-23T03:12:21;12.30;99.90
8338;DHT22;4206;48.634;9.516;2023-03-23T03:15:02;12.30;99.90
8338;DHT22;4206;48.634;9.516;2023-03-23T03:17:36;13.20;99.90
8338;DHT22;4206;48.634;9.516;2023-03-23T03:20:06;13.60;99.90
8338;DHT22;4206;48.634;9.516;2023-03-23T03:22:38;13.90;99.90
8338;DHT22;4206;48.634;9.516;2023-03-23T03:25:08;14.00;99.90
8338;DHT22;4206;48.634;9.516;2023-03-23T03:27:35;14.40;99.90
8338;DHT22;4206;48.634;9.516;2023-03-23T03:30:03;14.30;99.90
8338;DHT22;4206;48.634;9.516;2023-03-23T03:32:36;14.50;99.90
8338;DHT22;4206;48.634;9.516;2023-03-23T03:35:05;14.50;99.90
8338;DHT22;4206;48.634;9.516;2023-03-23T03:37:36;14.60;99.90
8338;DHT22;4206;48.634;9.516;2023-03-23T03:40:06;14.60;99.90
8338;DHT22;4206;48.634;9.516;2023-03-23T03:42:38;14.80;99.90
8338;DHT22;4206;48.634;9.516;2023-03-23T03:45:05;14.80;99.90
8338;DHT22;4206;48.634;9.516;2023-03-23T03:47:32;14.80;99.90
8338;DHT22;4206;48.634;9.516;2023-03-23T03:49:58;14.90;99.90
8338;DHT22;4206;48.634;9.516;2023-03-23T03:52:24;15.00;99.90
8338;DHT22;4206;48.634;9.516;2023-03-23T03:54:50;15.00;99.90
8338;DHT22;4206;48.634;9.516;2023-03-23T03:57:16;15.00;99.90
8338;DHT22;4206;48.634;9.516;2023-03-23T03:59:43;15.00;99.90
8338;DHT22;4206;48.634;9.516;2023-03-23T05:00:19;15.20;99.50
8338;DHT22;4206;48.634;9.516;2023-03-23T05:02:46;15.20;99.50
8338;DHT22;4206;48.634;9.516;2023-03-23T05:05:18;15.20;99.40
8338;DHT22;4206;48.634;9.516;2023-03-23T05:07:44;15.30;99.30
8338;DHT22;4206;48.634;9.516;2023-03-23T05:10:11;15.20;99.50
8338;DHT22;4206;48.634;9.516;2023-03-23T05:12:38;15.20;99.60
8338;DHT22;4206;48.634;9.516;2023-03-23T05:15:05;15.20;99.50
8338;DHT22;4206;48.634;9.516;2023-03-23T05:17:33;15.20;99.50
8338;DHT22;4206;48.634;9.516;2023-03-23T05:20:00;15.20;99.70
8338;DHT22;4206;48.634;9.516;2023-03-23T05:22:27;15.10;99.80
8338;DHT22;4206;48.634;9.516;2023-03-23T05:24:53;15.10;99.90
8338;DHT22;4206;48.634;9.516;2023-03-23T05:27:19;15.00;99.90
8338;DHT22;4206;48.634;9.516;2023-03-23T05:29:46;15.10;99.90
8338;DHT22;4206;48.634;9.516;2023-03-23T05:32:15;15.00;99.90
8338;DHT22;4206;48.634;9.516;2023-03-23T05:34:42;15.10;99.90
8338;DHT22;4206;48.634;9.516;2023-03-23T05:37:09;15.00;99.90
8338;DHT22;4206;48.634;9.516;2023-03-23T05:39:36;15.00;99.90
8338;DHT22;4206;48.634;9.516;2023-03-23T05:42:02;15.00;99.90
8338;DHT22;4206;48.634;9.516;2023-03-23T05:44:29;15.00;99.90
8338;DHT22;4206;48.634;9.516;2023-03-23T05:46:55;15.00;99.90
8338;DHT22;4206;48.634;9.516;2023-03-23T05:49:21;15.10;99.70
8338;DHT22;4206;48.634;9.516;2023-03-23T05:51:48;15.20;99.60
8338;DHT22;4206;48.634;9.516;2023-03-23T05:54:15;15.20;99.50
8338;DHT22;4206;48.634;9.516;2023-03-23T05:56:42;15.20;99.60
8338;DHT22;4206;48.634;9.516;2023-03-23T05:59:08;15.20;99.60
8338;DHT22;4206;48.634;9.516;2023-03-23T06:01:35;15.20;99.50
8338;DHT22;4206;48.634;9.516;2023-03-23T06:04:01;15.30;99.40
8338;DHT22;4206;48.634;9.516;2023-03-23T06:06:28;15.30;99.30
8338;DHT22;4206;48.634;9.516;2023-03-23T06:08:55;15.30;99.40
8338;DHT22;4206;48.634;9.516;2023-03-23T06:11:23;15.20;99.40
8338;DHT22;4206;48.634;9.516;2023-03-23T06:13:50;15.20;99.30
8338;DHT22;4206;48.634;9.516;2023-03-23T06:16:16;15.30;99.30
8338;DHT22;4206;48.634;9.516;2023-03-23T06:18:42;15.30;99.30
8338;DHT22;4206;48.634;9.516;2023-03-23T06:21:09;15.30;99.40
8338;DHT22;4206;48.634;9.516;2023-03-23T06:23:35;15.20;99.60
8338;DHT22;4206;48.634;9.516;2023-03-23T06:26:05;15.20;99.50
8338;DHT22;4206;48.634;9.516;2023-03-23T06:28:32;15.30;99.50
8338;DHT22;4206;48.634;9.516;2023-03-23T06:31:01;15.30;99.60
8338;DHT22;4206;48.634;9.516;2023-03-23T06:33:27;15.30;99.50
8338;DHT22;4206;48.634;9.516;2023-03-23T06:35:53;15.30;99.50
8338;DHT22;4206;48.634;9.516;2023-03-23T06:38:19;15.20;99.50
8338;DHT22;4206;48.634;9.516;2023-03-23T06:40:45;15.30;99.60
8338;DHT22;4206;48.634;9.516;2023-03-23T06:43:12;15.30;99.20
8338;DHT22;4206;48.634;9.516;2023-03-23T06:45:39;15.40;99.40
8338;DHT22;4206;48.634;9.516;2023-03-23T06:48:06;15.40;99.50
8338;DHT22;4206;48.634;9.516;2023-03-23T06:50:32;15.40;99.30
8338;DHT22;4206;48.634;9.516;2023-03-23T06:52:58;15.50;99.20
8338;DHT22;4206;48.634;9.516;2023-03-23T06:55:24;15.50;99.50
8338;DHT22;4206;48.634;9.516;2023-03-23T06:57:50;15.40;99.50
8338;DHT22;4206;48.634;9.516;2023-03-23T07:00:16;15.40;99.50
8338;DHT22;4206;48.634;9.516;2023-03-23T07:02:43;15.40;99.30
8338;DHT22;4206;48.634;9.516;2023-03-23T07:05:11;15.30;99.30
8338;DHT22;4206;48.634;9.516;2023-03-23T07:07:38;15.50;99.30
8338;DHT22;4206;48.634;9.516;2023-03-23T07:10:07;15.40;99.40
8338;DHT22;4206;48.634;9.516;2023-03-23T07:12:35;15.40;99.60
8338;DHT22;4206;48.634;9.516;2023-03-23T07:15:02;15.40;99.40
8338;DHT22;4206;48.634;9.516;2023-03-23T07:17:28;15.40;99.60
8338;DHT22;4206;48.634;9.516;2023-03-23T07:19:55;15.60;99.50
8338;DHT22;4206;48.634;9.516;2023-03-23T07:22:21;15.60;99.40
8338;DHT22;4206;48.634;9.516;2023-03-23T07:24:47;15.60;99.50
8338;DHT22;4206;48.634;9.516;2023-03-23T07:27:13;15.70;99.30
8338;DHT22;4206;48.634;9.516;2023-03-23T07:29:39;15.70;99.30
8338;DHT22;4206;48.634;9.516;2023-03-23T07:32:06;15.70;99.70
8338;DHT22;4206;48.634;9.516;2023-03-23T07:34:36;15.90;99.30
8338;DHT22;4206;48.634;9.516;2023-03-23T07:37:03;16.00;99.50
8338;DHT22;4206;48.634;9.516;2023-03-23T07:39:29;16.10;99.40
8338;DHT22;4206;48.634;9.516;2023-03-23T07:41:55;16.40;99.90
8338;DHT22;4206;48.634;9.516;2023-03-23T07:44:21;16.30;99.90
8338;DHT22;4206;48.634;9.516;2023-03-23T07:46:48;16.30;99.90
8338;DHT22;4206;48.634;9.516;2023-03-23T07:49:14;16.10;99.90
8338;DHT22;4206;48.634;9.516;2023-03-23T07:51:40;16.10;99.90
8338;DHT22;4206;48.634;9.516;2023-03-23T07:54:07;16.30;99.80
8338;DHT22;4206;48.634;9.516;2023-03-23T07:56:34;16.30;99.90
8338;DHT22;4206;48.634;9.516;2023-03-23T07:59:01;16.00;99.90
8338;DHT22;4206;48.634;9.516;2023-03-23T08:01:28;15.80;99.90
8338;DHT22;4206;48.634;9.516;2023-03-23T08:03:54;15.70;99.90
8338;DHT22;4206;48.634;9.516;2023-03-23T08:06:23;15.70;99.90
8338;DHT22;4206;48.634;9.516;2023-03-23T08:08:50;15.70;99.90
8338;DHT22;4206;48.634;9.516;2023-03-23T08:11:16;15.60;99.90
8338;DHT22;4206;48.634;9.516;2023-03-23T08:13:44;15.60;99.90
8338;DHT22;4206;48.634;9.516;2023-03-23T08:16:10;15.60;99.90
8338;DHT22;4206;48.634;9.516;2023-03-23T08:18:37;15.80;99.90
8338;DHT22;4206;48.634;9.516;2023-03-23T08:21:05;16.00;99.90
8338;DHT22;4206;48.634;9.516;2023-03-23T08:23:33;16.10;99.90
8338;DHT22;4206;48.634;9.516;2023-03-23T08:25:59;16.20;99.90
8338;DHT22;4206;48.634;9.516;2023-03-23T08:28:26;16.30;99.90
8338;DHT22;4206;48.634;9.516;2023-03-23T08:30:53;16.40;99.90
8338;DHT22;4206;48.634;9.516;2023-03-23T08:33:20;16.40;99.90
8338;DHT22;4206;48.634;9.516;2023-03-23T08:35:55;16.60;99.90
8338;DHT22;4206;48.634;9.516;2023-03-23T08:38:21;16.80;99.90
8338;DHT22;4206;48.634;9.516;2023-03-23T08:40:47;16.90;99.90
8338;DHT22;4206;48.634;9.516;2023-03-23T08:43:13;16.90;99.90
8338;DHT22;4206;48.634;9.516;2023-03-23T08:45:41;17.00;99.90
8338;DHT22;4206;48.634;9.516;2023-03-23T08:48:07;17.10;99.90
8338;DHT22;4206;48.634;9.516;2023-03-23T08:50:34;17.30;99.90
8338;DHT22;4206;48.634;9.516;2023-03-23T08:53:01;17.70;99.90
8338;DHT22;4206;48.634;9.516;2023-03-23T08:55:28;18.20;99.90
8338;DHT22;4206;48.634;9.516;2023-03-23T08:57:54;18.60;99.90
8338;DHT22;4206;48.634;9.516;2023-03-23T09:00:22;18.40;99.90
8338;DHT22;4206;48.634;9.516;2023-03-23T09:02:51;18.70;99.80
8338;DHT22;4206;48.634;9.516;2023-03-23T09:05:20;18.40;99.90
8338;DHT22;4206;48.634;9.516;2023-03-23T09:07:49;17.80;99.90
8338;DHT22;4206;48.634;9.516;2023-03-23T09:10:16;17.30;99.90
8338;DHT22;4206;48.634;9.516;2023-03-23T09:12:43;17.20;99.90
8338;DHT22;4206;48.634;9.516;2023-03-23T09:15:11;17.00;99.90
8338;DHT22;4206;48.634;9.516;2023-03-23T09:17:40;16.80;99.90
8338;DHT22;4206;48.634;9.516;2023-03-23T09:20:07;16.80;99.90
8338;DHT22;4206;48.634;9.516;2023-03-23T09:22:39;16.70;99.90
8338;DHT22;4206;48.634;9.516;2023-03-23T09:25:07;16.60;99.90
8338;DHT22;4206;48.634;9.516;2023-03-23T09:27:35;16.60;99.90
8338;DHT22;4206;48.634;9.516;2023-03-23T09:30:04;16.60;99.90
8338;DHT22;4206;48.634;9.516;2023-03-23T09:32:33;16.70;99.90
8338;DHT22;4206;48.634;9.516;2023-03-23T09:35:01;16.80;99.90
8338;DHT22;4206;48.634;9.516;2023-03-23T09:37:29;16.80;99.90
8338;DHT22;4206;48.634;9.516;2023-03-23T09:39:55;16.90;99.90
8338;DHT22;4206;48.634;9.516;2023-03-23T09:42:39;17.10;99.90
8338;DHT22;4206;48.634;9.516;2023-03-23T09:47:48;17.10;99.90
8338;DHT22;4206;48.634;9.516;2023-03-23T09:50:18;16.90;99.90
8338;DHT22;4206;48.634;9.516;2023-03-23T09:52:56;16.80;99.90
8338;DHT22;4206;48.634;9.516;2023-03-23T09:55:24;16.80;99.90
8338;DHT22;4206;48.634;9.516;2023-03-23T09:57:54;16.80;99.90
8338;DHT22;4206;48.634;9.516;2023-03-23T10:00:27;16.90;99.90
8338;DHT22;4206;48.634;9.516;2023-03-23T10:03:14;16.80;99.90
8338;DHT22;4206;48.634;9.516;2023-03-23T10:05:46;16.80;99.90
8338;DHT22;4206;48.634;9.516;2023-03-23T10:08:15;16.60;99.90
8338;DHT22;4206;48.634;9.516;2023-03-23T10:10:45;16.60;99.90
8338;DHT22;4206;48.634;9.516;2023-03-23T10:16:15;16.60;99.90
8338;DHT22;4206;48.634;9.516;2023-03-23T10:18:53;16.70;99.90
8338;DHT22;4206;48.634;9.516;2023-03-23T10:21:23;16.90;99.90
8338;DHT22;4206;48.634;9.516;2023-03-23T10:28:43;16.80;99.90
8338;DHT22;4206;48.634;9.516;2023-03-23T10:31:20;16.70;99.90
8338;DHT22;4206;48.634;9.516;2023-03-23T10:33:50;16.90;99.90
8338;DHT22;4206;48.634;9.516;2023-03-23T10:36:24;16.90;99.90
8338;DHT22;4206;48.634;9.516;2023-03-23T10:41:48;17.10;99.90
8338;DHT22;4206;48.634;9.516;2023-03-23T10:44:18;17.00;99.90
8338;DHT22;4206;48.634;9.516;2023-03-23T10:46:54;17.00;99.90
8338;DHT22;4206;48.634;9.516;2023-03-23T10:49:27;17.00;99.90
8338;DHT22;4206;48.634;9.516;2023-03-23T10:52:05;17.00;99.90
8338;DHT22;4206;48.634;9.516;2023-03-23T10:54:38;17.10;99.90
8338;DHT22;4206;48.634;9.516;2023-03-23T10:57:20;17.10;99.90
8338;DHT22;4206;48.634;9.516;2023-03-23T10:59:47;17.30;99.90
8338;DHT22;4206;48.634;9.516;2023-03-23T11:02:17;17.40;99.90
8338;DHT22;4206;48.634;9.516;2023-03-23T11:05:03;17.20;99.90
8338;DHT22;4206;48.634;9.516;2023-03-23T11:07:33;17.20;99.90
8338;DHT22;4206;48.634;9.516;2023-03-23T11:10:11;17.10;99.90
8338;DHT22;4206;48.634;9.516;2023-03-23T11:12:44;16.90;99.90
8338;DHT22;4206;48.634;9.516;2023-03-23T11:15:29;17.00;99.90
8338;DHT22;4206;48.634;9.516;2023-03-23T11:17:59;16.90;99.90
8338;DHT22;4206;48.634;9.516;2023-03-23T11:20:27;17.20;99.90
8338;DHT22;4206;48.634;9.516;2023-03-23T11:22:55;17.30;99.90
8338;DHT22;4206;48.634;9.516;2023-03-23T11:25:22;17.60;99.90
8338;DHT22;4206;48.634;9.516;2023-03-23T11:27:49;18.00;99.90
8338;DHT22;4206;48.634;9.516;2023-03-23T11:30:31;18.50;99.90
8338;DHT22;4206;48.634;9.516;2023-03-23T11:33:01;18.70;99.90
8338;DHT22;4206;48.634;9.516;2023-03-23T11:35:28;18.80;99.90
8338;DHT22;4206;48.634;9.516;2023-03-23T11:37:57;18.90;99.90
8338;DHT22;4206;48.634;9.516;2023-03-23T11:40:26;18.90;99.90
8338;DHT22;4206;48.634;9.516;2023-03-23T11:45:21;18.90;99.90
8338;DHT22;4206;48.634;9.516;2023-03-23T11:50:32;19.00;99.90
8338;DHT22;4206;48.634;9.516;2023-03-23T11:53:06;19.30;99.90
8338;DHT22;4206;48.634;9.516;2023-03-23T11:55:53;19.80;99.90
8338;DHT22;4206;48.634;9.516;2023-03-23T11:58:21;20.40;99.90
8338;DHT22;4206;48.634;9.516;2023-03-23T12:00:54;20.40;99.90
8338;DHT22;4206;48.634;9.516;2023-03-23T12:03:20;20.20;99.90
8338;DHT22;4206;48.634;9.516;2023-03-23T12:05:54;20.00;99.90
8338;DHT22;4206;48.634;9.516;2023-03-23T12:11:10;20.00;99.90
8338;DHT22;4206;48.634;9.516;2023-03-23T12:13:56;20.30;99.90
8338;DHT22;4206;48.634;9.516;2023-03-23T12:16:41;19.60;99.90
8338;DHT22;4206;48.634;9.516;2023-03-23T12:29:43;19.20;99.90
8338;DHT22;4206;48.634;9.516;2023-03-23T12:32:38;19.10;99.90
8338;DHT22;4206;48.634;9.516;2023-03-23T12:43:15;18.80;99.90
8338;DHT22;4206;48.634;9.516;2023-03-23T12:48:26;18.60;99.90
8338;DHT22;4206;48.634;9.516;2023-03-23T12:53:29;18.60;99.90
8338;DHT22;4206;48.634;9.516;2023-03-23T12:58:46;18.50;99.90
8338;DHT22;4206;48.634;9.516;2023-03-23T13:01:18;18.40;99.90
8338;DHT22;4206;48.634;9.516;2023-03-23T13:08:56;18.30;99.90
8338;DHT22;4206;48.634;9.516;2023-03-23T13:11:32;18.20;99.90
8338;DHT22;4206;48.634;9.516;2023-03-23T13:14:09;18.20;99.90
8338;DHT22;4206;48.634;9.516;2023-03-23T13:22:24;18.00;99.90
8338;DHT22;4206;48.634;9.516;2023-03-23T13:24:56;18.20;99.90
8338;DHT22;4206;48.634;9.516;2023-03-23T13:27:25;18.00;99.90
8338;DHT22;4206;48.634;9.516;2023-03-23T13:29:54;18.10;99.90
8338;DHT22;4206;48.634;9.516;2023-03-23T13:32:23;18.20;99.90
8338;DHT22;4206;48.634;9.516;2023-03-23T13:34:56;18.30;99.90
8338;DHT22;4206;48.634;9.516;2023-03-23T13:37:25;18.60;99.90
8338;DHT22;4206;48.634;9.516;2023-03-23T13:39:56;18.80;99.90
8338;DHT22;4206;48.634;9.516;2023-03-23T13:42:29;18.90;99.90
8338;DHT22;4206;48.634;9.516;2023-03-23T13:47:44;19.10;99.90
8338;DHT22;4206;48.634;9.516;2023-03-23T13:50:26;19.20;99.90
8338;DHT22;4206;48.634;9.516;2023-03-23T13:52:54;19.30;99.90
8338;DHT22;4206;48.634;9.516;2023-03-23T13:57:58;18.80;99.90
8338;DHT22;4206;48.634;9.516;2023-03-23T14:00:45;18.80;99.90
8338;DHT22;4206;48.634;9.516;2023-03-23T14:03:17;18.70;99.90
8338;DHT22;4206;48.634;9.516;2023-03-23T14:06:01;18.60;99.90
8338;DHT22;4206;48.634;9.516;2023-03-23T14:13:31;18.80;99.90
8338;DHT22;4206;48.634;9.516;2023-03-23T14:16:00;18.80;99.90
8338;DHT22;4206;48.634;9.516;2023-03-23T14:18:37;18.70;99.90
8338;DHT22;4206;48.634;9.516;2023-03-23T14:21:13;18.60;99.90
8338;DHT22;4206;48.634;9.516;2023-03-23T14:23:39;18.50;99.90
8338;DHT22;4206;48.634;9.516;2023-03-23T14:26:12;18.40;99.90
8338;DHT22;4206;48.634;9.516;2023-03-23T14:28:42;18.50;99.90
8338;DHT22;4206;48.634;9.516;2023-03-23T14:31:24;18.50;99.90
8338;DHT22;4206;48.634;9.516;2023-03-23T14:33:52;18.50;99.90
8338;DHT22;4206;48.634;9.516;2023-03-23T14:36:24;18.50;99.90
8338;DHT22;4206;48.634;9.516;2023-03-23T14:39:18;18.50;99.90
8338;DHT22;4206;48.634;9.516;2023-03-23T14:41:45;18.30;99.90
8338;DHT22;4206;48.634;9.516;2023-03-23T14:44:15;18.40;99.90
8338;DHT22;4206;48.634;9.516;2023-03-23T14:46:43;18.30;99.90
8338;DHT22;4206;48.634;9.516;2023-03-23T14:49:14;18.40;99.90
8338;DHT22;4206;48.634;9.516;2023-03-23T14:52:02;18.30;99.90
8338;DHT22;4206;48.634;9.516;2023-03-23T14:54:28;18.30;99.90
8338;DHT22;4206;48.634;9.516;2023-03-23T14:56:55;18.20;99.90
8338;DHT22;4206;48.634;9.516;2023-03-23T14:59:21;18.10;99.90
8338;DHT22;4206;48.634;9.516;2023-03-23T15:01:49;18.20;99.90
8338;DHT22;4206;48.634;9.516;2023-03-23T15:04:25;18.10;99.90
8338;DHT22;4206;48.634;9.516;2023-03-23T15:06:55;18.10;99.90
8338;DHT22;4206;48.634;9.516;2023-03-23T15:09:23;18.20;99.90
8338;DHT22;4206;48.634;9.516;2023-03-23T15:11:53;18.10;99.90
8338;DHT22;4206;48.634;9.516;2023-03-23T15:14:22;18.10;99.90
8338;DHT22;4206;48.634;9.516;2023-03-23T15:16:51;18.00;99.90
8338;DHT22;4206;48.634;9.516;2023-03-23T15:19:22;17.90;99.90
8338;DHT22;4206;48.634;9.516;2023-03-23T15:24:24;17.90;99.90
8338;DHT22;4206;48.634;9.516;2023-03-23T15:26:51;17.90;99.90
8338;DHT22;4206;48.634;9.516;2023-03-23T15:29:20;17.80;99.90
8338;DHT22;4206;48.634;9.516;2023-03-23T15:31:50;17.80;99.90
8338;DHT22;4206;48.634;9.516;2023-03-23T15:34:24;17.80;99.90
8338;DHT22;4206;48.634;9.516;2023-03-23T15:36:56;17.70;99.90
8338;DHT22;4206;48.634;9.516;2023-03-23T15:39:22;17.70;99.90
8338;DHT22;4206;48.634;9.516;2023-03-23T15:41:50;17.70;99.90
8338;DHT22;4206;48.634;9.516;2023-03-23T15:44:23;17.70;99.90
8338;DHT22;4206;48.634;9.516;2023-03-23T15:46:51;17.70;99.90
8338;DHT22;4206;48.634;9.516;2023-03-23T15:49:18;17.70;99.90
8338;DHT22;4206;48.634;9.516;2023-03-23T15:51:44;17.60;99.90
8338;DHT22;4206;48.634;9.516;2023-03-23T15:54:15;17.60;99.90
8338;DHT22;4206;48.634;9.516;2023-03-23T15:56:47;17.60;99.90
8338;DHT22;4206;48.634;9.516;2023-03-23T15:59:14;17.40;99.90
8338;DHT22;4206;48.634;9.516;2023-03-23T16:01:41;17.30;99.90
8338;DHT22;4206;48.634;9.516;2023-03-23T16:04:14;17.30;99.90
8338;DHT22;4206;48.634;9.516;2023-03-23T16:06:43;17.30;99.90
8338;DHT22;4206;48.634;9.516;2023-03-23T16:09:14;17.20;99.90
8338;DHT22;4206;48.634;9.516;2023-03-23T16:11:41;17.20;99.90
8338;DHT22;4206;48.634;9.516;2023-03-23T16:14:08;17.10;99.90
8338;DHT22;4206;48.634;9.516;2023-03-23T16:16:38;17.20;99.90
8338;DHT22;4206;48.634;9.516;2023-03-23T16:19:09;17.10;99.90
8338;DHT22;4206;48.634;9.516;2023-03-23T16:21:36;17.00;99.90
8338;DHT22;4206;48.634;9.516;2023-03-23T16:24:03;16.90;99.90
8338;DHT22;4206;48.634;9.516;2023-03-23T16:26:30;16.90;99.90
8338;DHT22;4206;48.634;9.516;2023-03-23T16:28:57;16.80;99.90
8338;DHT22;4206;48.634;9.516;2023-03-23T16:31:38;16.80;99.90
8338;DHT22;4206;48.634;9.516;2023-03-23T16:34:06;16.70;99.90
8338;DHT22;4206;48.634;9.516;2023-03-23T16:36:34;16.70;99.90
8338;DHT22;4206;48.634;9.516;2023-03-23T16:39:01;16.70;99.90
8338;DHT22;4206;48.634;9.516;2023-03-23T16:41:28;16.80;99.90
8338;DHT22;4206;48.634;9.516;2023-03-23T16:43:55;16.70;99.90
8338;DHT22;4206;48.634;9.516;2023-03-23T16:46:22;16.70;99.90
8338;DHT22;4206;48.634;9.516;2023-03-23T16:48:49;16.70;99.90
8338;DHT22;4206;48.634;9.516;2023-03-23T16:51:16;16.60;99.90
8338;DHT22;4206;48.634;9.516;2023-03-23T16:53:43;16.60;99.90
8338;DHT22;4206;48.634;9.516;2023-03-23T16:56:10;16.70;99.90
8338;DHT22;4206;48.634;9.516;2023-03-23T16:58:37;16.60;99.90
8338;DHT22;4206;48.634;9.516;2023-03-23T17:01:06;16.50;99.90
8338;DHT22;4206;48.634;9.516;2023-03-23T17:03:34;16.40;99.90
8338;DHT22;4206;48.634;9.516;2023-03-23T17:06:01;16.20;99.90
8338;DHT22;4206;48.634;9.516;2023-03-23T17:08:28;16.30;99.90
8338;DHT22;4206;48.634;9.516;2023-03-23T17:10:55;16.30;99.90
8338;DHT22;4206;48.634;9.516;2023-03-23T17:13:22;16.20;99.90
8338;DHT22;4206;48.634;9.516;2023-03-23T17:15:51;16.20;99.90
8338;DHT22;4206;48.634;9.516;2023-03-23T17:18:19;16.10;99.90
8338;DHT22;4206;48.634;9.516;2023-03-23T17:20:47;16.10;99.90
8338;DHT22;4206;48.634;9.516;2023-03-23T17:23:14;16.00;99.90
8338;DHT22;4206;48.634;9.516;2023-03-23T17:25:45;16.00;99.90
8338;DHT22;4206;48.634;9.516;2023-03-23T17:28:12;15.90;99.90
8338;DHT22;4206;48.634;9.516;2023-03-23T17:30:40;16.00;99.90
8338;DHT22;4206;48.634;9.516;2023-03-23T17:33:08;16.00;99.90
8338;DHT22;4206;48.634;9.516;2023-03-23T17:35:35;15.90;99.90
8338;DHT22;4206;48.634;9.516;2023-03-23T17:38:02;15.60;99.90
8338;DHT22;4206;48.634;9.516;2023-03-23T17:40:29;15.50;99.90
8338;DHT22;4206;48.634;9.516;2023-03-23T17:42:56;15.70;99.90
8338;DHT22;4206;48.634;9.516;2023-03-23T17:45:23;15.60;99.90
8338;DHT22;4206;48.634;9.516;2023-03-23T17:47:50;15.70;99.90
8338;DHT22;4206;48.634;9.516;2023-03-23T17:50:17;15.80;99.90
8338;DHT22;4206;48.634;9.516;2023-03-23T17:52:44;15.70;99.90
8338;DHT22;4206;48.634;9.516;2023-03-23T17:55:11;15.70;99.90
8338;DHT22;4206;48.634;9.516;2023-03-23T17:57:38;16.00;99.90
8338;DHT22;4206;48.634;9.516;2023-03-23T18:00:06;15.80;99.90
8338;DHT22;4206;48.634;9.516;2023-03-23T18:02:35;16.00;99.90
8338;DHT22;4206;48.634;9.516;2023-03-23T18:05:02;15.90;99.90
8338;DHT22;4206;48.634;9.516;2023-03-23T18:09:58;16.20;99.90
8338;DHT22;4206;48.634;9.516;2023-03-23T18:12:26;16.10;99.90
8338;DHT22;4206;48.634;9.516;2023-03-23T18:14:57;16.10;99.90
8338;DHT22;4206;48.634;9.516;2023-03-23T18:17:24;16.10;99.90
8338;DHT22;4206;48.634;9.516;2023-03-23T18:19:52;16.10;99.90
8338;DHT22;4206;48.634;9.516;2023-03-23T18:22:19;15.90;99.90
8338;DHT22;4206;48.634;9.516;2023-03-23T18:24:46;16.00;99.90
8338;DHT22;4206;48.634;9.516;2023-03-23T18:27:13;16.10;99.90
8338;DHT22;4206;48.634;9.516;2023-03-23T18:29:40;16.00;99.90
8338;DHT22;4206;48.634;9.516;2023-03-23T18:32:07;16.00;99.90
8338;DHT22;4206;48.634;9.516;2023-03-23T18:34:34;16.00;99.90
8338;DHT22;4206;48.634;9.516;2023-03-23T18:37:02;16.00;99.90